Terminal Aerodrome Forecast
Issued by NWS

Current Version | Previous Version | Graphics & Text | Print | Product List | Glossary On
Versions: 1 2 3 4 5 6 7 8 9 10 11 12 13 14 15 16 17 18 19 20 21 22 23 24 25 26
000
FTUS41 KILN 302000 AAB
TAFLUK
TAF AMD
KLUK 302059Z 3021/3118 21012KT P6SM VCTS BKN050CB
      TEMPO 3021/3024 VRB15G25KT 3SM -TSRA OVC028CB
     FM310000 20006KT P6SM FEW050 SCT150
     FM310500 16008KT P6SM VCSH SCT025 BKN050
     FM311500 22010KT P6SM OVC025=

USA.gov is the U.S. government's official web portal to all federal, state and local government web resources and services.